Huvudsida
METAR-TAF:

METAR-TAF

Flygplatser :

Jeddah, Saudiarabien

latitud: 21-42N, longitud: 039-11E, höjd: 15 m

Aktuellt väderrapport

Denna rapport gjordes för 22 minuter sedan, klockan 10:00 UTC
Vind 12 kt från väst/sydväst
Temperatur 36°C
Fuktighet 50%
Tryck 1005 hPa
Sikt 10 km eller mer
Få moln på en höjd av 4000 ft

METAR: OEJN 041000Z 24012KT 9999 FEW040 36/24 Q1005 NOSIG

Tid: 13:22 (10:22 UTC)

Väderprognos

Denna rapport gjordes för 5 timmar och 22 minuter sedan, klockan 05:00 UTC
Prognos gäller från 04 kl. 06 UTC till 05 kl. 12 UTC
Vind 14 kt från väst/nordväst
Sikt: 7000 m
Spridda moln på en höjd av 4000 ft
Spridda moln på en höjd av 10000 ft
Blir
från 04 kl. 15 UTC till 04 kl. 17 UTC
Vind 11 kt från nord

TAF: OEJN 040500Z 0406/0512 30014KT 7000 SCT040 SCT100 BECMG 0415/0417 35011KT

Aktuella väderrapporter och prognoser från 4000 flygplatser (METAR- och TAF-rapporter).

De tillgängliga stationerna syns som gula och röda prickar på kartan.

För musen över prickarna för att se namnen på stationerna.

Klicka sedan för att få väderrapporter och prognoser.

För att ändra kartan: Klicka på de gröna knapparna med ett svart kors på för att zooma in; den gröna knappen med ett streck på för att zooma ut; eller på de gröna pilarna för angränsande kartor.


METAR-TAF: